createdAt,value
2023-01-11T00:00:00.494Z,7.05
2023-01-11T00:02:34.578Z,7.30
2023-01-11T00:05:01.643Z,7.40
2023-01-11T00:07:52.717Z,7.72
2023-01-11T00:10:43.904Z,7.20
2023-01-11T00:14:08.609Z,7.28
2023-01-11T00:16:41.752Z,7.63
2023-01-11T00:19:21.897Z,8.32
2023-01-11T00:21:52.784Z,6.95
2023-01-11T00:24:38.845Z,7.50
2023-01-11T00:27:24.735Z,7.10
2023-01-11T00:30:00.727Z,6.82
2023-01-11T00:33:11.165Z,6.35
2023-01-11T00:35:41.708Z,5.70
2023-01-11T00:38:08.965Z,6.22
2023-01-11T00:40:36.022Z,5.75
2023-01-11T00:43:21.717Z,6.22
2023-01-11T00:46:08.388Z,6.15
2023-01-11T00:48:44.777Z,5.78
2023-01-11T00:51:11.904Z,6.13
2023-01-11T00:53:38.927Z,5.97
2023-01-11T00:56:06.291Z,5.88
2023-01-11T00:58:33.273Z,5.47
2023-01-11T01:01:07.288Z,6.03
2023-01-11T01:03:34.598Z,6.13
2023-01-11T01:06:01.623Z,6.28
2023-01-11T01:08:28.850Z,6.03
2023-01-11T01:10:55.821Z,6.57
2023-01-11T01:13:41.316Z,6.22
2023-01-11T01:16:08.403Z,5.90
2023-01-11T01:18:35.535Z,6.63
2023-01-11T01:21:02.625Z,6.15
2023-01-11T01:23:29.651Z,6.00
2023-01-11T01:25:56.668Z,5.60
2023-01-11T01:28:25.126Z,5.97
2023-01-11T01:30:52.690Z,5.47
2023-01-11T01:33:19.805Z,5.75
2023-01-11T01:35:47.022Z,4.85
2023-01-11T01:38:14.478Z,4.90
2023-01-11T01:40:48.001Z,5.68
2023-01-11T01:43:17.778Z,5.30
2023-01-11T01:46:27.905Z,4.50
2023-01-11T01:49:42.370Z,5.10
2023-01-11T01:52:16.545Z,4.88
2023-01-11T01:55:11.692Z,5.50
2023-01-11T01:58:17.445Z,5.32
2023-01-11T02:01:28.847Z,5.13
2023-01-11T02:04:11.711Z,4.57
2023-01-11T02:06:58.222Z,4.85
2023-01-11T02:09:59.168Z,4.93
2023-01-11T02:12:31.426Z,4.90
2023-01-11T02:15:10.767Z,5.22
2023-01-11T02:17:44.744Z,5.43
2023-01-11T02:20:50.319Z,5.07
2023-01-11T02:24:04.404Z,5.32
2023-01-11T02:27:42.000Z,6.30
2023-01-11T02:30:38.481Z,5.70
2023-01-11T02:33:49.518Z,5.97
2023-01-11T02:36:53.898Z,5.30
2023-01-11T02:39:50.431Z,5.53
2023-01-11T02:43:18.815Z,5.47
2023-01-11T02:46:34.812Z,6.07
2023-01-11T02:54:25.169Z,4.93
2023-01-11T02:57:08.472Z,5.93
2023-01-11T03:00:05.565Z,5.35
2023-01-11T03:02:49.547Z,5.45
2023-01-11T03:05:27.830Z,5.65
2023-01-11T03:08:48.003Z,5.15
2023-01-11T03:12:26.585Z,5.63
2023-01-11T03:15:33.514Z,4.72
2023-01-11T03:18:38.054Z,5.00
2023-01-11T03:21:55.137Z,4.28
2023-01-11T03:24:47.748Z,4.80
2023-01-11T03:27:43.388Z,5.47
2023-01-11T03:30:41.504Z,5.57
2023-01-11T03:33:35.610Z,5.25
2023-01-11T03:36:57.251Z,4.95
2023-01-11T03:40:08.404Z,4.60
2023-01-11T03:46:46.453Z,4.75
2023-01-11T03:50:10.724Z,4.93
2023-01-11T03:53:11.166Z,4.47
2023-01-11T03:56:23.702Z,4.45
2023-01-11T04:01:49.706Z,4.20
2023-01-11T04:04:23.319Z,4.03
2023-01-11T04:06:50.598Z,4.93
2023-01-11T04:09:17.666Z,4.47
2023-01-11T04:11:45.512Z,5.18
2023-01-11T04:14:12.845Z,4.70
2023-01-11T04:16:40.132Z,4.15
2023-01-11T04:19:07.637Z,4.00
2023-01-11T04:21:34.794Z,3.80
2023-01-11T04:24:20.690Z,4.03
2023-01-11T04:27:23.847Z,4.30
2023-01-11T04:30:25.868Z,3.60
2023-01-11T04:33:08.468Z,3.60
2023-01-11T04:36:12.951Z,4.32
2023-01-11T04:39:16.689Z,4.03
2023-01-11T04:42:26.119Z,3.78
2023-01-11T04:45:39.776Z,3.72
2023-01-11T04:48:23.058Z,3.53
2023-01-11T04:50:56.330Z,4.10
2023-01-11T04:53:23.537Z,3.63
2023-01-11T04:55:50.521Z,3.50
2023-01-11T04:58:17.526Z,3.17
2023-01-11T05:00:45.616Z,4.07
2023-01-11T05:03:12.627Z,4.60
2023-01-11T05:05:39.618Z,3.72
2023-01-11T05:08:09.414Z,3.90
2023-01-11T05:10:36.510Z,4.20
2023-01-11T05:13:03.440Z,4.10
2023-01-11T05:15:30.426Z,3.40
2023-01-11T05:17:57.650Z,3.22
2023-01-11T05:20:25.153Z,3.90
2023-01-11T05:22:52.284Z,4.07
2023-01-11T05:25:19.232Z,3.75
2023-01-11T05:27:46.291Z,3.67
2023-01-11T05:30:13.680Z,3.90
2023-01-11T05:32:40.742Z,3.75
2023-01-11T05:35:11.099Z,3.83
2023-01-11T05:37:39.056Z,4.38
2023-01-11T05:40:07.552Z,4.63
2023-01-11T05:42:34.905Z,4.32
2023-01-11T05:45:21.247Z,3.20
2023-01-11T05:47:48.993Z,4.20
2023-01-11T05:50:16.675Z,4.18
2023-01-11T05:52:44.010Z,4.35
2023-01-11T05:55:11.233Z,3.45
2023-01-11T05:57:42.397Z,4.05
2023-01-11T06:00:11.934Z,4.03
2023-01-11T06:02:39.252Z,3.80
2023-01-11T06:05:08.592Z,4.18
2023-01-11T06:07:36.009Z,3.83
2023-01-11T06:10:03.626Z,3.67
2023-01-11T06:12:30.913Z,4.10
2023-01-11T06:14:58.299Z,4.03
2023-01-11T06:17:25.576Z,3.58
2023-01-11T06:19:53.027Z,3.20
2023-01-11T06:22:20.326Z,3.63
2023-01-11T06:24:58.283Z,3.65
2023-01-11T06:27:31.987Z,4.00
2023-01-11T06:30:13.521Z,4.00
2023-01-11T06:32:41.750Z,4.07
2023-01-11T06:35:23.688Z,3.70
2023-01-11T06:38:05.174Z,4.28
2023-01-11T06:41:08.069Z,4.38
2023-01-11T06:43:57.581Z,4.00
2023-01-11T06:46:39.665Z,3.97
2023-01-11T06:49:18.878Z,4.60
2023-01-11T06:51:46.884Z,5.72
2023-01-11T06:54:13.979Z,4.00
2023-01-11T06:56:41.338Z,4.38
2023-01-11T06:59:08.852Z,3.95
2023-01-11T07:01:36.075Z,3.90
2023-01-11T07:04:03.380Z,3.45
2023-01-11T07:06:34.698Z,4.38
2023-01-11T07:09:02.392Z,3.67
2023-01-11T07:11:31.758Z,3.95
2023-01-11T07:13:59.909Z,3.58
2023-01-11T07:16:30.230Z,3.88
2023-01-11T07:18:57.714Z,4.03
2023-01-11T07:21:26.923Z,4.32
2023-01-11T07:23:54.160Z,3.80
2023-01-11T07:26:21.707Z,3.60
2023-01-11T07:28:48.893Z,4.30
2023-01-11T07:31:16.058Z,3.78
2023-01-11T07:33:43.277Z,3.60
2023-01-11T07:36:10.313Z,3.58
2023-01-11T07:38:37.546Z,4.03
2023-01-11T07:41:24.689Z,3.75
2023-01-11T07:43:52.082Z,4.10
2023-01-11T07:46:19.235Z,3.70
2023-01-11T07:48:47.621Z,3.40
2023-01-11T07:51:16.741Z,3.80
2023-01-11T07:53:44.122Z,3.88
2023-01-11T07:56:11.162Z,3.72
2023-01-11T07:58:38.230Z,3.47
2023-01-11T08:01:05.838Z,3.63
2023-01-11T08:03:33.187Z,3.92
2023-01-11T08:06:00.367Z,3.60
2023-01-11T08:08:27.539Z,3.55
2023-01-11T08:11:12.979Z,3.92
2023-01-11T08:13:58.517Z,3.83
2023-01-11T08:16:27.410Z,4.03
2023-01-11T08:19:04.773Z,3.97
2023-01-11T08:21:45.269Z,3.55
2023-01-11T08:24:16.400Z,4.15
2023-01-11T08:26:44.692Z,3.40
2023-01-11T08:29:17.976Z,3.35
2023-01-11T08:31:48.868Z,3.55
2023-01-11T08:34:16.456Z,3.72
2023-01-11T08:36:43.896Z,3.13
2023-01-11T08:39:13.321Z,3.30
2023-01-11T08:41:45.671Z,3.63
2023-01-11T08:44:38.901Z,3.55
2023-01-11T08:47:09.909Z,3.58
2023-01-11T08:49:56.659Z,3.85
2023-01-11T08:52:34.519Z,3.72
2023-01-11T08:55:21.018Z,3.35
2023-01-11T08:58:08.452Z,3.63
2023-01-11T09:00:39.061Z,3.30
2023-01-11T09:03:06.799Z,3.55
2023-01-11T09:05:37.055Z,3.88
2023-01-11T09:08:05.958Z,3.20
2023-01-11T09:10:33.894Z,3.17
2023-01-11T09:13:10.788Z,3.22
2023-01-11T09:15:47.921Z,3.58
2023-01-11T09:18:36.890Z,4.03
2023-01-11T09:21:49.901Z,3.83
2023-01-11T09:24:39.086Z,4.60
2023-01-11T09:27:25.549Z,3.13
2023-01-11T09:30:03.379Z,3.70
2023-01-11T09:32:58.943Z,4.38
2023-01-11T09:36:02.669Z,3.88
2023-01-11T09:38:54.198Z,3.75
2023-01-11T09:43:13.207Z,3.88
2023-01-11T09:46:08.657Z,3.63
2023-01-11T09:49:03.417Z,4.80
2023-01-11T09:51:39.613Z,4.78
2023-01-11T09:54:10.294Z,4.22
2023-01-11T09:56:52.297Z,4.30
2023-01-11T09:59:42.602Z,4.53
2023-01-11T10:02:34.724Z,3.92
2023-01-11T10:05:55.918Z,3.90
2023-01-11T10:18:38.491Z,3.63
2023-01-11T10:19:41.323Z,4.22
2023-01-11T10:22:27.901Z,3.70
2023-01-11T10:25:11.586Z,4.47
2023-01-11T10:27:49.451Z,3.40
2023-01-11T10:30:44.650Z,3.10
2023-01-11T10:33:47.932Z,5.47
2023-01-11T10:40:25.245Z,3.60
2023-01-11T10:43:09.436Z,3.60
2023-01-11T10:45:52.893Z,3.40
2023-01-11T10:48:43.347Z,3.30
2023-01-11T10:51:44.384Z,3.67
2023-01-11T10:54:30.212Z,4.72
2023-01-11T10:57:33.654Z,4.10
2023-01-11T11:00:31.602Z,4.00
2023-01-11T11:03:22.288Z,3.40
2023-01-11T11:06:28.419Z,3.72
2023-01-11T11:09:47.864Z,3.72
2023-01-11T11:12:37.058Z,3.83
2023-01-11T11:15:25.224Z,3.50
2023-01-11T11:17:55.191Z,2.80
2023-01-11T11:20:27.166Z,3.15
2023-01-11T11:22:56.592Z,2.72
2023-01-11T11:25:37.371Z,2.83
2023-01-11T11:28:23.028Z,3.25
2023-01-11T11:30:54.621Z,2.70
2023-01-11T11:33:41.389Z,3.10
2023-01-11T11:36:14.108Z,2.85
2023-01-11T11:39:09.111Z,3.40
2023-01-11T11:41:56.969Z,3.22
2023-01-11T11:44:28.065Z,3.20
2023-01-11T11:47:14.164Z,3.20
2023-01-11T11:49:42.356Z,3.05
2023-01-11T11:52:17.870Z,3.58
2023-01-11T11:54:59.135Z,2.90
2023-01-11T11:57:37.903Z,2.78
2023-01-11T12:00:28.252Z,2.67
2023-01-11T12:03:11.564Z,3.13
2023-01-11T12:05:49.083Z,2.80
2023-01-11T12:08:18.758Z,2.88
2023-01-11T12:10:57.631Z,2.70
2023-01-11T12:13:37.950Z,2.58
2023-01-11T12:16:20.365Z,2.45
2023-01-11T12:18:48.133Z,2.30
2023-01-11T12:21:24.885Z,2.45
2023-01-11T12:24:23.773Z,2.10
2023-01-11T12:27:29.073Z,2.38
2023-01-11T12:30:59.477Z,2.33
2023-01-11T12:34:10.035Z,1.90
2023-01-11T12:37:10.726Z,2.10
2023-01-11T12:40:02.793Z,2.15
2023-01-11T12:43:04.213Z,1.77
2023-01-11T12:46:08.194Z,1.05
2023-01-11T12:49:24.921Z,1.38
2023-01-11T12:52:22.970Z,2.53
2023-01-11T12:55:20.599Z,1.50
2023-01-11T12:58:14.360Z,2.03
2023-01-11T13:01:09.710Z,2.47
2023-01-11T13:04:06.891Z,2.47
2023-01-11T13:06:56.962Z,3.08
2023-01-11T13:10:02.929Z,3.20
2023-01-11T13:12:49.617Z,2.88
2023-01-11T13:15:48.870Z,2.75
2023-01-11T13:18:48.569Z,2.72
2023-01-11T13:21:28.499Z,2.80
2023-01-11T13:24:02.226Z,2.78
2023-01-11T13:26:37.341Z,2.72
2023-01-11T13:29:18.185Z,5.28
2023-01-11T13:31:48.857Z,3.20
2023-01-11T13:34:58.125Z,3.05
2023-01-11T13:38:11.483Z,2.80
2023-01-11T13:40:58.314Z,2.92
2023-01-11T13:43:45.948Z,2.92
2023-01-11T13:46:42.101Z,2.90
2023-01-11T13:49:50.092Z,3.50
2023-01-11T13:52:47.634Z,3.50
2023-01-11T13:55:30.266Z,1.83
2023-01-11T14:00:43.991Z,1.35
2023-01-11T14:03:36.790Z,1.20
2023-01-11T14:09:27.460Z,1.25
2023-01-11T14:12:40.442Z,1.23
2023-01-11T14:15:48.719Z,1.35
2023-01-11T14:18:28.657Z,1.50
2023-01-11T14:21:41.844Z,1.20
2023-01-11T14:27:06.849Z,1.50
2023-01-11T14:30:08.081Z,1.73
2023-01-11T14:33:25.360Z,1.90
2023-01-11T14:36:27.877Z,1.88
2023-01-11T14:39:09.553Z,2.28
2023-01-11T14:41:57.526Z,2.17
2023-01-11T14:45:01.841Z,2.03
2023-01-11T14:48:08.039Z,1.88
2023-01-11T14:51:13.805Z,1.70
2023-01-11T14:53:52.166Z,1.42
2023-01-11T14:56:51.315Z,1.40
2023-01-11T14:59:37.419Z,2.17
2023-01-11T15:02:04.761Z,1.65
2023-01-11T15:04:35.381Z,1.13
2023-01-11T15:07:30.159Z,1.60
2023-01-11T15:10:00.353Z,1.60
2023-01-11T15:12:40.329Z,1.58
2023-01-11T15:15:18.807Z,1.20
2023-01-11T15:18:12.382Z,1.30
2023-01-11T15:21:02.948Z,1.10
2023-01-11T15:23:45.845Z,1.02
2023-01-11T15:26:17.704Z,1.30
2023-01-11T15:28:52.990Z,1.55
2023-01-11T15:31:51.097Z,1.20
2023-01-11T15:34:42.488Z,2.05
2023-01-11T15:37:45.760Z,1.13
2023-01-11T15:40:39.461Z,0.90
2023-01-11T15:43:32.292Z,1.35
2023-01-11T15:46:46.293Z,1.00
2023-01-11T15:50:06.135Z,0.98
2023-01-11T15:53:37.240Z,1.25
2023-01-11T15:56:40.025Z,1.50
2023-01-11T15:59:37.264Z,2.58
2023-01-11T16:02:13.374Z,2.83
2023-01-11T16:05:15.709Z,2.40
2023-01-11T16:08:10.398Z,2.70
2023-01-11T16:11:20.456Z,2.25
2023-01-11T16:14:08.125Z,2.50
2023-01-11T16:16:43.618Z,2.38
2023-01-11T16:19:23.454Z,2.67
2023-01-11T16:22:01.790Z,2.55
2023-01-11T16:24:38.851Z,1.92
2023-01-11T16:27:07.340Z,1.33
2023-01-11T16:30:09.523Z,1.65
2023-01-11T16:35:03.579Z,1.60
2023-01-11T16:37:43.843Z,1.50
2023-01-11T16:40:14.160Z,1.55
2023-01-11T16:42:56.412Z,1.25
2023-01-11T16:48:10.030Z,1.50
2023-01-11T16:50:37.385Z,0.88
2023-01-11T16:53:22.414Z,1.55
2023-01-11T16:56:16.122Z,1.08
2023-01-11T16:58:43.499Z,1.30
2023-01-11T17:01:15.192Z,1.08
2023-01-11T17:03:55.293Z,1.05
2023-01-11T17:06:25.396Z,1.00
2023-01-11T17:09:30.916Z,1.13
2023-01-11T17:11:58.390Z,1.30
2023-01-11T17:15:18.860Z,1.02
2023-01-11T17:17:46.665Z,1.23
2023-01-11T17:20:57.687Z,0.90
2023-01-11T17:23:27.734Z,0.88
2023-01-11T17:25:57.374Z,0.88
2023-01-11T17:28:26.005Z,1.20
2023-01-11T17:30:54.431Z,0.85
2023-01-11T17:33:32.776Z,1.10
2023-01-11T17:36:01.550Z,1.42
2023-01-11T17:38:30.120Z,1.75
2023-01-11T17:42:03.187Z,1.30
2023-01-11T17:45:44.023Z,1.27
2023-01-11T17:49:01.080Z,1.98
2023-01-11T17:51:39.727Z,1.48
2023-01-11T17:54:22.672Z,1.00
2023-01-11T17:57:00.941Z,1.20
2023-01-11T17:59:32.952Z,1.10
2023-01-11T18:02:15.962Z,1.83
2023-01-11T18:05:03.902Z,1.63
2023-01-11T18:07:31.161Z,1.38
2023-01-11T18:10:02.152Z,1.38
2023-01-11T18:12:36.324Z,2.20
2023-01-11T18:15:08.807Z,1.67
2023-01-11T18:17:41.026Z,1.65
2023-01-11T18:20:37.706Z,1.95
2023-01-11T18:23:22.676Z,1.70
2023-01-11T18:25:49.791Z,2.10
2023-01-11T18:28:36.514Z,1.58
2023-01-11T18:31:09.303Z,1.70
2023-01-11T18:33:44.188Z,1.63
2023-01-11T18:36:25.893Z,1.83
2023-01-11T18:38:54.474Z,2.03
2023-01-11T18:41:48.302Z,1.77
2023-01-11T18:44:15.525Z,1.70
2023-01-11T18:46:45.078Z,2.00
2023-01-11T18:50:06.364Z,1.63
2023-01-11T18:52:34.698Z,1.67
2023-01-11T18:55:11.382Z,2.47
2023-01-11T18:57:51.677Z,1.70
2023-01-11T19:00:25.053Z,2.25
2023-01-11T19:02:55.499Z,2.55
2023-01-11T19:06:00.943Z,2.03
2023-01-11T19:08:54.002Z,1.50
2023-01-11T19:12:16.035Z,1.92
2023-01-11T19:14:46.110Z,2.15
2023-01-11T19:17:14.083Z,1.83
2023-01-11T19:19:53.655Z,1.83
2023-01-11T19:27:16.345Z,2.15
2023-01-11T19:29:54.373Z,1.80
2023-01-11T19:32:25.136Z,2.63
2023-01-11T19:34:53.462Z,2.25
2023-01-11T19:37:23.215Z,1.83
2023-01-11T19:39:53.494Z,1.35
2023-01-11T19:42:23.919Z,2.00
2023-01-11T19:44:51.584Z,1.92
2023-01-11T19:47:19.070Z,2.20
2023-01-11T19:50:42.334Z,1.75
2023-01-11T19:53:43.664Z,1.98
2023-01-11T20:01:05.667Z,2.65
2023-01-11T20:04:48.117Z,3.17
2023-01-11T20:12:05.675Z,2.92
2023-01-11T20:14:37.306Z,3.03
2023-01-11T20:17:32.134Z,4.18
2023-01-11T20:20:15.621Z,3.72
2023-01-11T20:23:08.284Z,3.53
2023-01-11T20:25:41.266Z,3.08
2023-01-11T20:28:16.466Z,3.13
2023-01-11T20:30:44.057Z,3.80
2023-01-11T20:33:11.333Z,3.78
2023-01-11T20:35:38.659Z,3.65
2023-01-11T20:38:05.677Z,3.25
2023-01-11T20:40:32.916Z,3.08
2023-01-11T20:43:00.112Z,2.45
2023-01-11T20:45:29.186Z,3.70
2023-01-11T20:47:56.343Z,2.92
2023-01-11T20:50:23.643Z,3.03
2023-01-11T20:52:51.070Z,3.40
2023-01-11T20:55:19.059Z,3.25
2023-01-11T20:57:47.900Z,3.38
2023-01-11T21:00:15.776Z,3.33
2023-01-11T21:02:42.905Z,3.50
2023-01-11T21:05:11.106Z,3.80
2023-01-11T21:07:39.220Z,3.97
2023-01-11T21:10:07.341Z,3.28
2023-01-11T21:15:04.758Z,2.70
2023-01-11T21:17:32.043Z,2.50
2023-01-11T21:20:02.233Z,2.42
2023-01-11T21:22:29.318Z,2.97
2023-01-11T21:24:59.532Z,3.08
2023-01-11T21:28:33.143Z,3.08
2023-01-11T21:30:42.866Z,2.08
2023-01-11T21:33:10.225Z,2.13
2023-01-11T21:35:37.445Z,3.25
2023-01-11T21:38:07.044Z,2.67
2023-01-11T21:40:34.952Z,3.00
2023-01-11T21:43:02.162Z,2.90
2023-01-11T21:45:31.711Z,2.97
2023-01-11T21:47:58.923Z,2.88
2023-01-11T21:50:26.208Z,2.75
2023-01-11T21:52:57.100Z,2.78
2023-01-11T21:55:24.496Z,2.58
2023-01-11T21:57:51.668Z,2.88
2023-01-11T22:00:19.899Z,2.30
2023-01-11T22:02:50.419Z,2.67
2023-01-11T22:05:17.670Z,2.45
2023-01-11T22:07:44.808Z,2.97
2023-01-11T22:10:12.423Z,2.60
2023-01-11T22:12:39.456Z,2.90
2023-01-11T22:15:08.355Z,2.35
2023-01-11T22:17:35.610Z,3.03
2023-01-11T22:20:03.719Z,2.83
2023-01-11T22:22:38.716Z,2.60
2023-01-11T22:25:06.724Z,2.60
2023-01-11T22:27:33.948Z,4.03
2023-01-11T22:32:34.355Z,2.83
2023-01-11T22:35:01.558Z,2.80
2023-01-11T22:37:29.559Z,2.67
2023-01-11T22:39:59.523Z,2.30
2023-01-11T22:42:27.833Z,2.80
2023-01-11T22:44:55.271Z,2.80
2023-01-11T22:47:22.618Z,3.15
2023-01-11T22:54:58.351Z,3.03
2023-01-11T23:42:08.853Z,1.95
2023-01-11T23:44:36.141Z,2.05
2023-01-11T23:47:21.509Z,1.92
2023-01-11T23:49:51.128Z,1.98
2023-01-11T23:52:20.527Z,2.03
2023-01-11T23:54:48.262Z,3.08
2023-01-11T23:57:17.419Z,1.98
